KANW/ANW METAR and TAF weather

Enter ICAO airport designator
Station Type Date Time Source
KANW METAR 2019/08/24 09:55 UTC NOAA

KANW 240955Z AUTO 15012KT 10SM OVC011 20/20 A3003 RMK AO2 T01950195


Station Type Date Time Source
KANW Decoded METAR 2019/08/24 09:55 UTC NOAA

Station name not available
Aug 24, 2019 - 05:55 AM EDT / 2019.08.24 0955 UTC
Wind: from the SSE (150 degrees) at 14 MPH (12 KT):0
Visibility: 10 mile(s):0
Sky conditions: overcast
Temperature: 67.1 F (19.5 C)
Dew Point: 67.1 F (19.5 C)
Relative Humidity: 100%
Pressure (altimeter): 30.03 in. Hg (1016 hPa)
ob: KANW 240955Z AUTO 15012KT 10SM OVC011 20/20 A3003 RMK AO2 T01950195
cycle: 10

Station Type Date Time Source
KANW TAF UTC NOAA

Error!

Example: see airport list